Forside
METAR-TAF:

METAR-TAF

Lufthavne :

Shawano, Wisconsin, USA

Breddekreds: 44-47-14N, længdekreds: 088-33-36W, højde: 248 m

Aktuelle vejr

Denne rapport blev lavet for 24 minutter siden, kl. 08:55 UTC
Vind stille
Temperatur -5°C
Fugtighed 79%
Tryk 1015 hPa
Sigt: 16.1 km
Overskyet i en højde af 3100 ft

METAR: KEZS 130855Z AUTO 00000KT 10SM OVC031 M05/M08 A2998 RMK AO2 T10551076

Tid: 03:19 (09:19 UTC)


TAF: fraværende

Vejrobservationer og prognoser fra mere end 4000 lufthavne (METAR og TAF).

De gule og røde prikker repræsenterer de meteorologiske stationer.

Flyt musen over at se navnet på stationen.

Så klik over at se vejr observationer og prognoser.

At skifte det kort: Klik på de grønne knapper med et sort kors for at zoome ind; på den grønne knap med en bindestreg for at zoome ud; eller på de grønne pile for tilstødende kort.


METAR-TAF: